createdAt,value
2018-01-08T00:01:05.974Z,0
2018-01-08T00:01:51.293Z,0
2018-01-08T00:03:05.984Z,0
2018-01-08T00:03:51.295Z,0
2018-01-08T00:05:06.004Z,0
2018-01-08T00:06:51.332Z,0
2018-01-08T00:07:51.094Z,0
2018-01-08T00:08:51.351Z,0
2018-01-08T00:10:06.065Z,0
2018-01-08T00:10:51.141Z,0
2018-01-08T00:11:51.412Z,0
2018-01-08T00:13:51.453Z,0
2018-01-08T00:14:51.442Z,0
2018-01-08T00:16:51.459Z,0
2018-01-08T00:17:51.486Z,0
2018-01-08T00:18:51.524Z,0
2018-01-08T00:19:51.504Z,0
2018-01-08T00:20:51.539Z,0
2018-01-08T00:21:51.545Z,0
2018-01-08T00:23:51.595Z,0
2018-01-08T00:24:51.291Z,0
2018-01-08T00:25:51.567Z,0
2018-01-08T00:26:51.580Z,0
2018-01-08T00:27:51.595Z,0
2018-01-08T00:28:51.708Z,0
2018-01-08T00:29:51.632Z,0
2018-01-08T00:30:51.616Z,0
2018-01-08T00:31:51.667Z,0
2018-01-08T00:32:51.654Z,0
2018-01-08T00:33:51.693Z,0
2018-01-08T00:34:51.679Z,0
2018-01-08T00:35:51.669Z,0
2018-01-08T00:36:51.684Z,0
2018-01-08T00:37:51.709Z,0
2018-01-08T00:39:06.391Z,0
2018-01-08T00:39:51.741Z,0
2018-01-08T00:40:51.736Z,0
2018-01-08T00:42:05.935Z,0
2018-01-08T00:42:51.860Z,0
2018-01-08T00:43:51.515Z,0
2018-01-08T00:44:51.823Z,0
2018-01-08T00:46:51.794Z,0
2018-01-08T00:48:06.563Z,0
2018-01-08T00:48:51.860Z,0
2018-01-08T00:49:51.876Z,0
2018-01-08T00:50:51.858Z,0
2018-01-08T00:51:51.865Z,0
2018-01-08T00:52:52.034Z,0
2018-01-08T00:53:51.651Z,0
2018-01-08T00:54:51.934Z,0
2018-01-08T00:56:51.918Z,0
2018-01-08T00:58:06.633Z,0
2018-01-08T00:58:51.965Z,0
2018-01-08T00:59:51.743Z,0
2018-01-08T01:02:06.661Z,0
2018-01-08T01:02:52.027Z,0
2018-01-08T01:04:06.680Z,0
2018-01-08T01:05:51.795Z,0
2018-01-08T01:07:06.718Z,0
2018-01-08T01:07:51.800Z,0
2018-01-08T01:08:52.088Z,0
2018-01-08T01:09:52.092Z,0
2018-01-08T01:10:52.121Z,0
2018-01-08T01:11:52.168Z,0
2018-01-08T01:12:52.105Z,0
2018-01-08T01:13:52.141Z,0
2018-01-08T01:14:52.144Z,0
2018-01-08T01:16:06.839Z,0
2018-01-08T01:16:52.172Z,0
2018-01-08T01:17:52.280Z,0
2018-01-08T01:18:52.170Z,0
2018-01-08T01:20:06.881Z,0
2018-01-08T01:20:52.216Z,0
2018-01-08T01:23:06.664Z,0
2018-01-08T01:23:52.239Z,0
2018-01-08T01:25:06.964Z,0
2018-01-08T01:25:52.292Z,0
2018-01-08T01:26:52.281Z,0
2018-01-08T01:27:52.330Z,0
2018-01-08T01:29:07.014Z,0
2018-01-08T01:29:52.300Z,0
2018-01-08T01:31:06.998Z,0
2018-01-08T01:32:07.015Z,0
2018-01-08T01:32:52.356Z,0
2018-01-08T01:35:07.034Z,0
2018-01-08T01:36:07.074Z,0
2018-01-08T01:36:52.418Z,0
2018-01-08T01:37:52.435Z,0
2018-01-08T01:38:52.422Z,0
2018-01-08T01:40:07.106Z,0
2018-01-08T01:40:51.940Z,0
2018-01-08T01:42:06.866Z,0
2018-01-08T01:42:52.491Z,0
2018-01-08T01:43:52.290Z,0
2018-01-08T01:44:52.475Z,0
2018-01-08T01:45:52.488Z,0
2018-01-08T01:47:07.175Z,0
2018-01-08T01:47:52.538Z,0
2018-01-08T01:48:52.541Z,0
2018-01-08T01:50:06.979Z,0
2018-01-08T01:51:07.224Z,0
2018-01-08T01:51:52.582Z,0
2018-01-08T01:52:52.591Z,0
2018-01-08T01:53:52.586Z,0
2018-01-08T01:54:52.587Z,0
2018-01-08T01:55:52.626Z,0
2018-01-08T01:58:07.315Z,0
2018-01-08T01:58:52.666Z,0
2018-01-08T02:00:07.345Z,0
2018-01-08T02:00:52.679Z,0
2018-01-08T02:01:52.691Z,0
2018-01-08T02:02:52.748Z,0
2018-01-08T02:03:52.733Z,0
2018-01-08T02:05:52.726Z,0
2018-01-08T02:06:52.753Z,0
2018-01-08T02:07:52.760Z,0
2018-01-08T02:08:52.776Z,0
2018-01-08T02:09:52.807Z,0
2018-01-08T02:10:52.534Z,0
2018-01-08T02:11:52.810Z,0
2018-01-08T02:12:52.852Z,0
2018-01-08T02:13:52.832Z,0
2018-01-08T02:14:52.855Z,0
2018-01-08T02:15:52.856Z,0
2018-01-08T02:17:07.531Z,0
2018-01-08T02:17:52.874Z,0
2018-01-08T02:19:07.553Z,0
2018-01-08T02:19:52.933Z,0
2018-01-08T02:21:07.600Z,0
2018-01-08T02:21:52.919Z,0
2018-01-08T02:23:07.620Z,0
2018-01-08T02:23:52.929Z,0
2018-01-08T02:24:52.946Z,0
2018-01-08T02:25:52.946Z,0
2018-01-08T02:26:52.976Z,0
2018-01-08T02:27:52.989Z,0
2018-01-08T02:28:53.000Z,0
2018-01-08T02:29:53.042Z,0
2018-01-08T02:30:53.021Z,0
2018-01-08T02:31:53.040Z,0
2018-01-08T02:32:53.083Z,0
2018-01-08T02:33:53.056Z,0
2018-01-08T02:34:53.074Z,0
2018-01-08T02:35:53.097Z,0
2018-01-08T02:36:53.083Z,0
2018-01-08T02:39:07.819Z,0
2018-01-08T02:39:53.144Z,0
2018-01-08T02:40:52.622Z,0
2018-01-08T02:41:52.910Z,0
2018-01-08T02:42:52.923Z,0
2018-01-08T02:43:53.173Z,0
2018-01-08T02:44:52.948Z,0
2018-01-08T02:46:07.634Z,0
2018-01-08T02:47:07.872Z,0
2018-01-08T02:47:52.980Z,0
2018-01-08T02:48:53.216Z,0
2018-01-08T02:49:53.272Z,0
2018-01-08T02:50:53.304Z,0
2018-01-08T02:51:53.264Z,0
2018-01-08T02:52:53.308Z,0
2018-01-08T02:53:53.352Z,0
2018-01-08T02:55:07.964Z,0
2018-01-08T02:55:53.319Z,0
2018-01-08T02:56:53.310Z,0
2018-01-08T02:57:53.342Z,0
2018-01-08T02:58:53.446Z,0
2018-01-08T02:59:53.377Z,0
2018-01-08T03:00:53.354Z,0
2018-01-08T03:01:53.412Z,0
2018-01-08T03:02:53.399Z,0
2018-01-08T03:04:08.064Z,0
2018-01-08T03:04:53.413Z,0
2018-01-08T03:05:53.467Z,0
2018-01-08T03:06:53.455Z,0
2018-01-08T03:07:53.438Z,0
2018-01-08T03:08:53.459Z,0
2018-01-08T03:09:53.462Z,0
2018-01-08T03:11:08.167Z,0
2018-01-08T03:11:53.495Z,0
2018-01-08T03:12:53.241Z,0
2018-01-08T03:13:53.533Z,0
2018-01-08T03:14:53.533Z,0
2018-01-08T03:15:53.547Z,0
2018-01-08T03:16:53.536Z,0
2018-01-08T03:17:53.558Z,0
2018-01-08T03:18:53.562Z,0
2018-01-08T03:19:53.588Z,0
2018-01-08T03:20:53.622Z,0
2018-01-08T03:21:53.616Z,0
2018-01-08T03:22:53.621Z,0
2018-01-08T03:23:53.372Z,0
2018-01-08T03:26:08.350Z,0
2018-01-08T03:26:53.650Z,0
2018-01-08T03:27:53.705Z,0
2018-01-08T03:28:53.694Z,0
2018-01-08T03:29:53.703Z,0
2018-01-08T03:30:53.700Z,0
2018-01-08T03:31:53.741Z,0
2018-01-08T03:33:08.402Z,0
2018-01-08T03:34:08.425Z,0
2018-01-08T03:34:53.755Z,0
2018-01-08T03:35:53.521Z,0
2018-01-08T03:36:53.810Z,0
2018-01-08T03:37:53.791Z,0
2018-01-08T03:38:53.828Z,0
2018-01-08T03:40:08.500Z,0
2018-01-08T03:40:53.826Z,0
2018-01-08T03:41:53.585Z,0
2018-01-08T03:42:53.872Z,0
2018-01-08T03:43:53.628Z,0
2018-01-08T03:44:53.620Z,0
2018-01-08T03:45:53.900Z,0
2018-01-08T03:46:53.660Z,0
2018-01-08T03:47:53.929Z,0
2018-01-08T03:49:08.601Z,0
2018-01-08T03:49:53.699Z,0
2018-01-08T03:50:53.938Z,0
2018-01-08T03:51:53.971Z,0
2018-01-08T03:53:54.010Z,0
2018-01-08T03:54:53.987Z,0
2018-01-08T03:56:08.651Z,0
2018-01-08T03:56:54.003Z,0
2018-01-08T03:58:08.678Z,0
2018-01-08T03:58:54.040Z,0
2018-01-08T03:59:54.052Z,0
2018-01-08T04:00:53.800Z,0
2018-01-08T04:02:08.472Z,0
2018-01-08T04:03:08.756Z,0
2018-01-08T04:03:54.091Z,0
2018-01-08T04:04:54.116Z,0
2018-01-08T04:05:54.155Z,0
2018-01-08T04:07:08.796Z,0
2018-01-08T04:07:54.109Z,0
2018-01-08T04:08:54.118Z,0
2018-01-08T04:10:08.815Z,0
2018-01-08T04:14:23.288Z,0
2018-01-08T04:14:54.233Z,0
2018-01-08T04:15:54.267Z,0
2018-01-08T04:16:54.258Z,0
2018-01-08T04:17:54.229Z,0
2018-01-08T04:18:54.257Z,0
2018-01-08T04:19:54.287Z,0
2018-01-08T04:20:54.296Z,0
2018-01-08T04:22:08.966Z,0
2018-01-08T04:22:54.308Z,0
2018-01-08T04:23:54.315Z,0
2018-01-08T04:24:54.382Z,0
2018-01-08T04:25:54.343Z,0
2018-01-08T04:26:54.368Z,0
2018-01-08T04:27:54.482Z,0
2018-01-08T04:28:54.109Z,0
2018-01-08T04:30:09.040Z,0
2018-01-08T04:31:54.419Z,0
2018-01-08T04:32:54.191Z,0
2018-01-08T04:33:54.422Z,0
2018-01-08T04:34:54.460Z,0
2018-01-08T04:35:54.450Z,0
2018-01-08T04:36:54.435Z,0
2018-01-08T04:37:54.463Z,0
2018-01-08T04:38:54.208Z,0
2018-01-08T04:40:09.163Z,0
2018-01-08T04:40:54.476Z,0
2018-01-08T04:41:54.290Z,0
2018-01-08T04:44:09.223Z,0
2018-01-08T04:44:54.547Z,0
2018-01-08T04:46:09.240Z,0
2018-01-08T04:46:54.558Z,0
2018-01-08T04:47:54.617Z,0
2018-01-08T04:48:54.347Z,0
2018-01-08T04:49:54.381Z,0
2018-01-08T04:50:54.611Z,0
2018-01-08T04:51:54.668Z,0
2018-01-08T04:52:54.741Z,0
2018-01-08T04:53:54.626Z,0
2018-01-08T04:54:54.672Z,0
2018-01-08T04:56:09.368Z,0
2018-01-08T04:56:54.675Z,0
2018-01-08T04:57:54.738Z,0
2018-01-08T04:58:54.783Z,0
2018-01-08T04:59:54.712Z,0
2018-01-08T05:01:09.468Z,0
2018-01-08T05:01:54.736Z,0
2018-01-08T05:02:54.748Z,0
2018-01-08T05:03:54.805Z,0
2018-01-08T05:05:09.185Z,0
2018-01-08T05:05:54.804Z,0
2018-01-08T05:06:54.771Z,0
2018-01-08T05:07:54.869Z,0
2018-01-08T05:08:54.793Z,0
2018-01-08T05:10:09.509Z,0
2018-01-08T05:10:54.841Z,0
2018-01-08T05:11:54.830Z,0
2018-01-08T05:12:54.869Z,0
2018-01-08T05:13:54.862Z,0
2018-01-08T05:14:54.867Z,0
2018-01-08T05:15:54.936Z,0
2018-01-08T05:16:54.631Z,0
2018-01-08T05:18:54.673Z,0
2018-01-08T05:19:54.960Z,0
2018-01-08T05:20:54.994Z,0
2018-01-08T05:21:54.704Z,0
2018-01-08T05:22:54.950Z,0
2018-01-08T05:23:55.007Z,0
2018-01-08T05:25:09.425Z,0
2018-01-08T05:25:55.007Z,0
2018-01-08T05:26:54.751Z,0
2018-01-08T05:27:55.029Z,0
2018-01-08T05:28:55.015Z,0
2018-01-08T05:29:55.052Z,0
2018-01-08T05:30:54.847Z,0
2018-01-08T05:31:55.077Z,0
2018-01-08T05:33:09.780Z,0
2018-01-08T05:33:55.076Z,0
2018-01-08T05:34:54.893Z,0
2018-01-08T05:35:55.148Z,0
2018-01-08T05:36:55.130Z,0
2018-01-08T05:37:55.117Z,0
2018-01-08T05:38:55.149Z,0
2018-01-08T05:40:09.563Z,0
2018-01-08T05:40:55.163Z,0
2018-01-08T05:42:09.854Z,0
2018-01-08T05:43:09.610Z,0
2018-01-08T05:43:55.204Z,0
2018-01-08T05:44:54.964Z,0
2018-01-08T05:46:09.910Z,0
2018-01-08T05:47:55.243Z,0
2018-01-08T05:49:09.936Z,0
2018-01-08T05:49:55.363Z,0
2018-01-08T05:50:55.273Z,0
2018-01-08T05:51:54.775Z,0
2018-01-08T05:52:55.046Z,0
2018-01-08T05:53:55.315Z,0
2018-01-08T05:54:55.365Z,0
2018-01-08T05:55:55.353Z,0
2018-01-08T05:56:55.364Z,0
2018-01-08T05:57:55.370Z,0
2018-01-08T05:58:55.370Z,0
2018-01-08T05:59:55.430Z,0
2018-01-08T06:00:55.373Z,0
2018-01-08T06:01:55.444Z,0
2018-01-08T06:02:55.159Z,0
2018-01-08T06:03:55.410Z,0
2018-01-08T06:05:10.106Z,0
2018-01-08T06:05:55.173Z,0
2018-01-08T06:07:55.514Z,0
2018-01-08T06:09:55.510Z,0
2018-01-08T06:10:55.565Z,0
2018-01-08T06:11:55.496Z,0
2018-01-08T06:12:55.566Z,0
2018-01-08T06:13:55.505Z,0
2018-01-08T06:15:10.205Z,0
2018-01-08T06:15:55.524Z,0
2018-01-08T06:16:55.559Z,0
2018-01-08T06:18:10.259Z,0
2018-01-08T06:18:55.568Z,0
2018-01-08T06:19:55.601Z,0
2018-01-08T06:21:10.050Z,0
2018-01-08T06:21:55.635Z,0
2018-01-08T06:22:55.651Z,0
2018-01-08T06:23:55.640Z,0
2018-01-08T06:24:55.651Z,0
2018-01-08T06:25:55.677Z,0
2018-01-08T06:26:55.644Z,0
2018-01-08T06:27:55.660Z,0
2018-01-08T06:28:55.720Z,0
2018-01-08T06:29:55.703Z,4
2018-01-08T06:30:55.730Z,4
2018-01-08T06:31:55.752Z,4
2018-01-08T06:32:55.863Z,0
2018-01-08T06:33:55.754Z,4
2018-01-08T06:34:55.834Z,4
2018-01-08T06:36:10.177Z,4
2018-01-08T06:36:55.857Z,4
2018-01-08T06:37:55.790Z,8
2018-01-08T06:39:55.569Z,4
2018-01-08T06:40:55.810Z,8
2018-01-08T06:41:55.336Z,12
2018-01-08T06:42:55.865Z,8
2018-01-08T06:43:55.858Z,12
2018-01-08T06:44:55.618Z,16
2018-01-08T06:45:55.919Z,20
2018-01-08T06:46:55.870Z,24
2018-01-08T06:47:55.894Z,24
2018-01-08T06:48:55.906Z,28
2018-01-08T06:49:55.932Z,32
2018-01-08T06:50:55.951Z,36
2018-01-08T06:51:55.950Z,44
2018-01-08T06:52:55.982Z,52
2018-01-08T06:53:56.057Z,56
2018-01-08T06:54:56.023Z,64
2018-01-08T06:55:55.992Z,72
2018-01-08T06:56:55.985Z,80
2018-01-08T06:57:56.053Z,92
2018-01-08T06:58:55.785Z,100
2018-01-08T06:59:56.040Z,116
2018-01-08T07:00:56.081Z,124
2018-01-08T07:01:56.068Z,140
2018-01-08T07:02:56.050Z,156
2018-01-08T07:03:56.078Z,172
2018-01-08T07:04:56.068Z,188
2018-01-08T07:06:56.112Z,220
2018-01-08T07:08:10.778Z,244
2018-01-08T07:08:56.208Z,260
2018-01-08T07:09:56.148Z,280
2018-01-08T07:11:56.164Z,320
2018-01-08T07:12:56.151Z,344
2018-01-08T07:13:56.201Z,364
2018-01-08T07:14:56.180Z,384
2018-01-08T07:16:56.218Z,432
2018-01-08T07:17:56.208Z,452
2018-01-08T07:19:10.893Z,484
2018-01-08T07:20:10.908Z,508
2018-01-08T07:20:56.244Z,528
2018-01-08T07:22:10.930Z,560
2018-01-08T07:23:10.935Z,588
2018-01-08T07:24:10.970Z,620
2018-01-08T07:24:56.285Z,640
2018-01-08T07:25:56.329Z,668
2018-01-08T07:26:56.322Z,696
2018-01-08T07:28:11.009Z,728
2018-01-08T07:28:56.347Z,756
2018-01-08T07:29:56.159Z,784
2018-01-08T07:30:56.389Z,816
2018-01-08T07:31:56.405Z,840
2018-01-08T07:32:56.521Z,872
2018-01-08T07:33:56.379Z,904
2018-01-08T07:34:56.428Z,940
2018-01-08T07:35:56.420Z,972
2018-01-08T07:36:56.439Z,1004
2018-01-08T07:37:56.464Z,1036
2018-01-08T07:38:56.205Z,1068
2018-01-08T07:40:11.132Z,1112
2018-01-08T07:40:56.473Z,1136
2018-01-08T07:41:56.225Z,1172
2018-01-08T07:42:56.539Z,1208
2018-01-08T07:43:56.515Z,1248
2018-01-08T07:44:56.496Z,1288
2018-01-08T07:45:56.523Z,1328
2018-01-08T07:46:56.522Z,1368
2018-01-08T07:47:56.547Z,1420
2018-01-08T07:48:56.577Z,1492
2018-01-08T07:49:56.580Z,1512
2018-01-08T07:51:11.258Z,1552
2018-01-08T07:52:11.252Z,1592
2018-01-08T07:52:56.612Z,1608
2018-01-08T07:53:56.614Z,1656
2018-01-08T07:54:56.655Z,1696
2018-01-08T07:56:11.322Z,1768
2018-01-08T07:56:56.636Z,1796
2018-01-08T07:57:56.648Z,1852
2018-01-08T07:58:56.643Z,1904
2018-01-08T07:59:56.726Z,1928
2018-01-08T08:00:56.719Z,1972
2018-01-08T08:02:11.369Z,2044
2018-01-08T08:02:56.722Z,2084
2018-01-08T08:03:56.760Z,2148
2018-01-08T08:04:56.501Z,2196
2018-01-08T08:05:56.780Z,2244
2018-01-08T08:06:56.758Z,2288
2018-01-08T08:07:56.789Z,2324
2018-01-08T08:09:11.437Z,2340
2018-01-08T08:09:56.801Z,2352
2018-01-08T08:11:11.207Z,2372
2018-01-08T08:11:56.805Z,2372
2018-01-08T08:12:56.940Z,2384
2018-01-08T08:13:56.860Z,2432
2018-01-08T08:14:56.849Z,2472
2018-01-08T08:15:56.849Z,2500
2018-01-08T08:16:56.652Z,2516
2018-01-08T08:18:56.898Z,2536
2018-01-08T08:19:56.903Z,2524
2018-01-08T08:21:56.925Z,2536
2018-01-08T08:22:56.955Z,2512
2018-01-08T08:24:56.971Z,2504
2018-01-08T08:25:56.983Z,2540
2018-01-08T08:27:11.646Z,2608
2018-01-08T08:28:11.679Z,2676
2018-01-08T08:28:57.043Z,2704
2018-01-08T08:29:57.036Z,2704
2018-01-08T08:30:57.044Z,2744
2018-01-08T08:31:57.014Z,2760
2018-01-08T08:32:57.085Z,2768
2018-01-08T08:33:56.816Z,2780
2018-01-08T08:34:57.076Z,2816
2018-01-08T08:37:11.769Z,2840
2018-01-08T08:37:56.850Z,2864
2018-01-08T08:38:56.835Z,2872
2018-01-08T08:39:57.101Z,2876
2018-01-08T08:40:57.140Z,2904
2018-01-08T08:41:56.900Z,2892
2018-01-08T08:43:11.850Z,2924
2018-01-08T08:43:57.189Z,2928
2018-01-08T08:44:57.207Z,3064
2018-01-08T08:45:57.177Z,3492
2018-01-08T08:46:57.224Z,3392
2018-01-08T08:47:57.228Z,3128
2018-01-08T08:48:57.235Z,3372
2018-01-08T08:49:57.238Z,3688
2018-01-08T08:52:11.687Z,4556
2018-01-08T08:52:57.270Z,4788
2018-01-08T08:53:57.302Z,4900
2018-01-08T08:54:57.262Z,4856
2018-01-08T08:56:11.985Z,4836
2018-01-08T08:56:57.289Z,4824
2018-01-08T08:57:57.060Z,4828
2018-01-08T08:59:11.752Z,4840
2018-01-08T09:00:12.027Z,4808
2018-01-08T09:00:57.082Z,4732
2018-01-08T09:01:57.124Z,4668
2018-01-08T09:02:57.412Z,4872
2018-01-08T09:03:57.138Z,4936
2018-01-08T09:04:57.386Z,4972
2018-01-08T09:05:57.411Z,4988
2018-01-08T09:06:57.420Z,5008
2018-01-08T09:07:57.443Z,5016
2018-01-08T09:09:57.455Z,5012
2018-01-08T09:10:57.204Z,5036
2018-01-08T09:11:57.259Z,5032
2018-01-08T09:12:57.246Z,5036
2018-01-08T09:13:57.521Z,5048
2018-01-08T09:15:12.201Z,5044
2018-01-08T09:15:57.510Z,5048
2018-01-08T09:16:57.525Z,5052
2018-01-08T09:18:57.583Z,5040
2018-01-08T09:19:57.556Z,5036
2018-01-08T09:20:57.312Z,5064
2018-01-08T09:21:57.325Z,5044
2018-01-08T09:22:57.603Z,5044
2018-01-08T09:23:57.360Z,5056
2018-01-08T09:24:57.365Z,5040
2018-01-08T09:25:57.639Z,5036
2018-01-08T09:26:57.696Z,5036
2018-01-08T09:27:57.427Z,5048
2018-01-08T09:28:57.549Z,5036
2018-01-08T09:29:57.696Z,5036
2018-01-08T09:31:12.385Z,5056
2018-01-08T09:32:12.162Z,5056
2018-01-08T09:32:57.705Z,5032
2018-01-08T09:33:57.757Z,5040
2018-01-08T09:34:57.764Z,5036
2018-01-08T09:35:57.845Z,5044
2018-01-08T09:37:12.451Z,5028
2018-01-08T09:37:57.791Z,5016
2018-01-08T09:38:57.596Z,5028
2018-01-08T09:39:57.802Z,5036
2018-01-08T09:40:57.570Z,5040
2018-01-08T09:41:57.847Z,5036
2018-01-08T09:42:57.844Z,5024
2018-01-08T09:44:12.519Z,5044
2018-01-08T09:44:57.894Z,5040
2018-01-08T09:46:57.892Z,5076
2018-01-08T09:47:57.900Z,5072
2018-01-08T09:49:57.940Z,5112
2018-01-08T09:51:12.649Z,5104
2018-01-08T09:51:57.715Z,5128
2018-01-08T09:52:58.005Z,5136
2018-01-08T09:53:57.722Z,5132
2018-01-08T09:54:58.066Z,5168
2018-01-08T09:55:57.983Z,5160
2018-01-08T09:56:57.999Z,5188
2018-01-08T09:57:58.055Z,5188
2018-01-08T09:58:58.021Z,5200
2018-01-08T09:59:57.818Z,5216
2018-01-08T10:00:58.149Z,5236
2018-01-08T10:01:58.092Z,5240
2018-01-08T10:02:57.820Z,5252
2018-01-08T10:03:58.073Z,5248
2018-01-08T10:04:58.109Z,5272
2018-01-08T10:05:58.134Z,5240
2018-01-08T10:06:58.126Z,5096
2018-01-08T10:08:12.559Z,4952
2018-01-08T10:08:58.156Z,4904
2018-01-08T10:09:58.152Z,4768
2018-01-08T10:10:58.161Z,4624
2018-01-08T10:11:58.223Z,4460
2018-01-08T10:12:58.213Z,4320
2018-01-08T10:13:58.205Z,4168
2018-01-08T10:15:12.936Z,3880
2018-01-08T10:15:58.245Z,3816
2018-01-08T10:16:58.019Z,3836
2018-01-08T10:18:12.929Z,3720
2018-01-08T10:18:58.017Z,3668
2018-01-08T10:19:58.314Z,3584
2018-01-08T10:20:58.307Z,3504
2018-01-08T10:22:12.982Z,3436
2018-01-08T10:22:58.364Z,3392
2018-01-08T10:23:58.344Z,3340
2018-01-08T10:25:12.767Z,3296
2018-01-08T10:25:58.378Z,3276
2018-01-08T10:26:58.374Z,3260
2018-01-08T10:28:13.081Z,3252
2018-01-08T10:28:58.396Z,3252
2018-01-08T10:29:58.155Z,3244
2018-01-08T10:30:58.422Z,3248
2018-01-08T10:31:58.436Z,3252
2018-01-08T10:32:58.539Z,3260
2018-01-08T10:34:13.126Z,3256
2018-01-08T10:35:12.636Z,3264
2018-01-08T10:35:58.468Z,3264
2018-01-08T10:36:58.536Z,3268
2018-01-08T10:37:58.541Z,3276
2018-01-08T10:38:58.525Z,3276
2018-01-08T10:39:58.289Z,3276
2018-01-08T10:40:58.540Z,3284
2018-01-08T10:41:58.313Z,3280
2018-01-08T10:42:58.630Z,3284
2018-01-08T10:43:58.585Z,3292
2018-01-08T10:44:58.586Z,3284
2018-01-08T10:45:58.623Z,3292
2018-01-08T10:47:13.287Z,3300
2018-01-08T10:47:58.622Z,3300
2018-01-08T10:48:58.504Z,3304
2018-01-08T10:50:13.340Z,3308
2018-01-08T10:50:58.445Z,3308
2018-01-08T10:52:13.127Z,3304
2018-01-08T10:52:58.689Z,3308
2018-01-08T10:53:58.697Z,3312
2018-01-08T10:54:58.493Z,3316
2018-01-08T10:56:13.427Z,3320
2018-01-08T10:56:58.775Z,3324
2018-01-08T10:57:58.797Z,3332
2018-01-08T10:58:58.796Z,3332
2018-01-08T10:59:58.817Z,3332
2018-01-08T11:01:13.464Z,3340
2018-01-08T11:02:13.506Z,3344
2018-01-08T11:02:58.851Z,3348
2018-01-08T11:03:58.826Z,3352
2018-01-08T11:04:58.875Z,3360
2018-01-08T11:06:13.560Z,3360
2018-01-08T11:06:58.902Z,3360
2018-01-08T11:07:58.925Z,3364
2018-01-08T11:08:58.948Z,3368
2018-01-08T11:09:58.947Z,3372
2018-01-08T11:10:58.931Z,3376
2018-01-08T11:12:13.353Z,3384
2018-01-08T11:12:58.965Z,3384
2018-01-08T11:13:58.980Z,3384
2018-01-08T11:15:13.650Z,3396
2018-01-08T11:17:13.764Z,3400
2018-01-08T11:17:59.030Z,3400
2018-01-08T11:18:59.059Z,3408
2018-01-08T11:19:59.070Z,3412
2018-01-08T11:21:13.801Z,3416
2018-01-08T11:21:59.079Z,3416
2018-01-08T11:22:58.864Z,3424
2018-01-08T11:23:59.243Z,3432
2018-01-08T11:24:59.126Z,3432
2018-01-08T11:25:58.864Z,3432
2018-01-08T11:26:59.175Z,3440
2018-01-08T11:28:13.823Z,3456
2018-01-08T11:28:59.171Z,3456
2018-01-08T11:29:59.179Z,3460
2018-01-08T11:30:59.195Z,3472
2018-01-08T11:31:59.182Z,3468
2018-01-08T11:32:59.249Z,3472
2018-01-08T11:33:59.224Z,3472
2018-01-08T11:34:59.241Z,3476
2018-01-08T11:35:59.256Z,3480
2018-01-08T11:36:59.266Z,3488
2018-01-08T11:37:59.060Z,3488
2018-01-08T11:38:59.049Z,3492
2018-01-08T11:39:59.043Z,3500
2018-01-08T11:40:59.324Z,3504
2018-01-08T11:41:59.088Z,3508
2018-01-08T11:42:59.081Z,3512
2018-01-08T11:44:14.042Z,3512
2018-01-08T11:44:59.376Z,3520
2018-01-08T11:45:59.126Z,3524
2018-01-08T11:47:14.132Z,3524
2018-01-08T11:48:59.452Z,3528
2018-01-08T11:49:59.451Z,3528
2018-01-08T11:51:14.239Z,3540
2018-01-08T11:51:59.493Z,3540
2018-01-08T11:53:14.190Z,3548
2018-01-08T11:53:59.502Z,3548
2018-01-08T11:54:59.257Z,3548
2018-01-08T11:55:59.526Z,3556
2018-01-08T11:57:14.215Z,3560
2018-01-08T11:57:59.333Z,3560
2018-01-08T11:59:14.330Z,3564
2018-01-08T11:59:59.335Z,3560
2018-01-08T12:01:14.023Z,3564
2018-01-08T12:01:59.617Z,3544
2018-01-08T12:02:59.598Z,3440
2018-01-08T12:04:14.302Z,3340
2018-01-08T12:05:14.063Z,3384
2018-01-08T12:05:59.635Z,3376
2018-01-08T12:06:59.527Z,3312
2018-01-08T12:07:59.680Z,3292
2018-01-08T12:09:14.380Z,3444
2018-01-08T12:09:59.466Z,3452
2018-01-08T12:10:59.464Z,3472
2018-01-08T12:11:59.762Z,3464
2018-01-08T12:12:59.745Z,3528
2018-01-08T12:13:59.780Z,3576
2018-01-08T12:14:59.806Z,3576
2018-01-08T12:15:59.785Z,3572
2018-01-08T12:17:14.464Z,3592
2018-01-08T12:17:59.800Z,3596
2018-01-08T12:19:14.491Z,3604
2018-01-08T12:19:59.862Z,3604
2018-01-08T12:20:59.826Z,3604
2018-01-08T12:21:59.893Z,3608
2018-01-08T12:23:00.123Z,3604
2018-01-08T12:23:59.905Z,3604
2018-01-08T12:25:14.573Z,3604
2018-01-08T12:25:59.934Z,3608
2018-01-08T12:26:59.917Z,3608
2018-01-08T12:27:59.953Z,3608
2018-01-08T12:28:59.989Z,3604
2018-01-08T12:29:59.978Z,3608
2018-01-08T12:30:59.994Z,3608
2018-01-08T12:31:59.980Z,3604
2018-01-08T12:33:00.018Z,3604
2018-01-08T12:34:00.048Z,3608
2018-01-08T12:35:00.072Z,3608
2018-01-08T12:36:00.048Z,3604
2018-01-08T12:37:00.064Z,3604
2018-01-08T12:38:00.102Z,3604
2018-01-08T12:38:59.842Z,3600
2018-01-08T12:39:59.865Z,3604
2018-01-08T12:41:14.784Z,3604
2018-01-08T12:41:59.885Z,3600
2018-01-08T12:42:59.650Z,3592
2018-01-08T12:44:00.156Z,3592
2018-01-08T12:45:00.169Z,3580
2018-01-08T12:46:00.171Z,3580
2018-01-08T12:47:00.216Z,3568
2018-01-08T12:48:14.891Z,3584
2018-01-08T12:50:00.364Z,3568
2018-01-08T12:51:14.936Z,3572
2018-01-08T12:53:00.380Z,3568
2018-01-08T12:55:00.331Z,3560
2018-01-08T12:56:15.017Z,3536
2018-01-08T12:57:00.410Z,3544
2018-01-08T12:58:00.096Z,3540
2018-01-08T12:59:00.380Z,3532
2018-01-08T13:00:00.355Z,3528
2018-01-08T13:01:00.386Z,3524
2018-01-08T13:02:00.431Z,3516
2018-01-08T13:03:00.420Z,3508
2018-01-08T13:04:00.471Z,3500
2018-01-08T13:05:00.455Z,3492
2018-01-08T13:05:59.934Z,3484
2018-01-08T13:07:00.499Z,3476
2018-01-08T13:08:00.253Z,3472
2018-01-08T13:09:15.163Z,3440
2018-01-08T13:10:00.496Z,3440
2018-01-08T13:11:00.268Z,3432
2018-01-08T13:12:00.581Z,3436
2018-01-08T13:13:00.556Z,3424
2018-01-08T13:14:00.562Z,3416
2018-01-08T13:15:00.560Z,3408
2018-01-08T13:16:00.575Z,3396
2018-01-08T13:17:15.291Z,3376
2018-01-08T13:18:00.364Z,3372
2018-01-08T13:19:00.610Z,3348
2018-01-08T13:20:00.651Z,3340
2018-01-08T13:21:00.693Z,3324
2018-01-08T13:22:00.678Z,3312
2018-01-08T13:24:15.376Z,3280
2018-01-08T13:25:00.695Z,3284
2018-01-08T13:26:00.704Z,3264
2018-01-08T13:27:15.415Z,3216
2018-01-08T13:28:15.165Z,3208
2018-01-08T13:29:00.767Z,3212
2018-01-08T13:30:00.785Z,3140
2018-01-08T13:31:00.779Z,3148
2018-01-08T13:32:00.807Z,3160
2018-01-08T13:33:00.829Z,3124
2018-01-08T13:34:00.816Z,3092
2018-01-08T13:35:00.849Z,3076
2018-01-08T13:36:15.520Z,3024
2018-01-08T13:37:00.616Z,3008
2018-01-08T13:38:15.312Z,2856
2018-01-08T13:39:00.900Z,2744
2018-01-08T13:40:15.090Z,2544
2018-01-08T13:41:00.685Z,2496
2018-01-08T13:42:00.978Z,2452
2018-01-08T13:43:15.612Z,2344
2018-01-08T13:44:15.627Z,2272
2018-01-08T13:46:00.773Z,2180
2018-01-08T13:47:15.695Z,2172
2018-01-08T13:48:15.700Z,2140
2018-01-08T13:49:01.086Z,2132
2018-01-08T13:50:00.796Z,2068
2018-01-08T13:51:01.042Z,2080
2018-01-08T13:52:15.774Z,2076
2018-01-08T13:53:01.168Z,2080
2018-01-08T13:54:01.111Z,2056
2018-01-08T13:55:01.165Z,2036
2018-01-08T13:56:01.126Z,2024
2018-01-08T13:57:01.141Z,2052
2018-01-08T13:58:01.141Z,1984
2018-01-08T13:59:00.942Z,2008
2018-01-08T14:00:15.600Z,1944
2018-01-08T14:01:00.936Z,1904
2018-01-08T14:02:00.945Z,1832
2018-01-08T14:03:00.973Z,1780
2018-01-08T14:04:00.981Z,1712
2018-01-08T14:05:01.277Z,1652
2018-01-08T14:06:15.937Z,1580
2018-01-08T14:07:01.280Z,1540
2018-01-08T14:08:15.972Z,1476
2018-01-08T14:09:01.043Z,1448
2018-01-08T14:10:15.975Z,1404
2018-01-08T14:11:01.323Z,1376
2018-01-08T14:12:01.353Z,1352
2018-01-08T14:13:01.366Z,1324
2018-01-08T14:14:01.135Z,1296
2018-01-08T14:15:01.379Z,1272
2018-01-08T14:16:15.807Z,1244
2018-01-08T14:17:01.424Z,1228
2018-01-08T14:20:01.439Z,1176
2018-01-08T14:21:01.455Z,1156
2018-01-08T14:22:01.246Z,1136
2018-01-08T14:23:01.500Z,1108
2018-01-08T14:24:01.227Z,1084
2018-01-08T14:25:16.163Z,1060
2018-01-08T14:26:01.550Z,1048
2018-01-08T14:27:01.547Z,1032
2018-01-08T14:28:01.543Z,1016
2018-01-08T14:29:01.592Z,1004
2018-01-08T14:30:15.978Z,992
2018-01-08T14:31:16.274Z,972
2018-01-08T14:32:01.593Z,964
2018-01-08T14:33:16.316Z,944
2018-01-08T14:34:01.645Z,928
2018-01-08T14:36:16.056Z,876
2018-01-08T14:37:01.698Z,856
2018-01-08T14:38:01.697Z,828
2018-01-08T14:39:16.353Z,796
2018-01-08T14:40:01.430Z,776
2018-01-08T14:42:01.713Z,740
2018-01-08T14:43:01.474Z,724
2018-01-08T14:44:01.762Z,712
2018-01-08T14:45:01.764Z,696
2018-01-08T14:46:01.802Z,680
2018-01-08T14:47:01.794Z,664